sensor_id;sensor_type;location;lat;lon;timestamp;P1;durP1;ratioP1;P2;durP2;ratioP2
75506;SDS011;64086;43.220;27.878;2024-03-02T00:02:24;12.95;;;6.38;;
75506;SDS011;64086;43.220;27.878;2024-03-02T00:04:50;16.05;;;6.75;;
75506;SDS011;64086;43.220;27.878;2024-03-02T00:07:16;14.98;;;7.22;;
75506;SDS011;64086;43.220;27.878;2024-03-02T00:09:41;12.43;;;6.95;;
75506;SDS011;64086;43.220;27.878;2024-03-02T00:12:07;14.48;;;6.88;;
75506;SDS011;64086;43.220;27.878;2024-03-02T00:14:33;12.30;;;5.93;;
75506;SDS011;64086;43.220;27.878;2024-03-02T00:16:59;12.68;;;6.15;;
75506;SDS011;64086;43.220;27.878;2024-03-02T00:19:24;14.10;;;5.53;;
75506;SDS011;64086;43.220;27.878;2024-03-02T00:21:50;13.68;;;6.78;;
75506;SDS011;64086;43.220;27.878;2024-03-02T00:24:29;13.40;;;5.40;;
75506;SDS011;64086;43.220;27.878;2024-03-02T00:26:57;15.05;;;5.85;;
75506;SDS011;64086;43.220;27.878;2024-03-02T00:29:23;14.02;;;6.30;;
75506;SDS011;64086;43.220;27.878;2024-03-02T00:31:49;12.73;;;5.63;;
75506;SDS011;64086;43.220;27.878;2024-03-02T00:34:15;14.93;;;6.18;;
75506;SDS011;64086;43.220;27.878;2024-03-02T00:36:43;10.77;;;5.28;;
75506;SDS011;64086;43.220;27.878;2024-03-02T00:39:09;15.52;;;6.30;;
75506;SDS011;64086;43.220;27.878;2024-03-02T00:41:38;13.13;;;5.88;;
75506;SDS011;64086;43.220;27.878;2024-03-02T00:44:07;12.82;;;6.03;;
75506;SDS011;64086;43.220;27.878;2024-03-02T00:46:36;13.18;;;6.47;;
75506;SDS011;64086;43.220;27.878;2024-03-02T00:49:06;11.77;;;6.30;;
75506;SDS011;64086;43.220;27.878;2024-03-02T00:51:36;13.23;;;6.20;;
75506;SDS011;64086;43.220;27.878;2024-03-02T00:54:03;10.90;;;5.32;;
75506;SDS011;64086;43.220;27.878;2024-03-02T00:56:30;18.77;;;6.50;;
75506;SDS011;64086;43.220;27.878;2024-03-02T00:58:56;13.45;;;6.30;;
75506;SDS011;64086;43.220;27.878;2024-03-02T01:01:22;13.15;;;6.03;;
75506;SDS011;64086;43.220;27.878;2024-03-02T01:03:47;13.25;;;5.75;;
75506;SDS011;64086;43.220;27.878;2024-03-02T01:06:18;14.35;;;6.18;;
75506;SDS011;64086;43.220;27.878;2024-03-02T01:08:44;13.18;;;5.90;;
75506;SDS011;64086;43.220;27.878;2024-03-02T01:11:11;15.82;;;5.70;;
75506;SDS011;64086;43.220;27.878;2024-03-02T01:13:36;11.10;;;5.90;;
75506;SDS011;64086;43.220;27.878;2024-03-02T01:16:02;11.05;;;5.50;;
75506;SDS011;64086;43.220;27.878;2024-03-02T01:18:29;12.88;;;5.45;;
75506;SDS011;64086;43.220;27.878;2024-03-02T01:20:55;14.77;;;6.20;;
75506;SDS011;64086;43.220;27.878;2024-03-02T01:23:24;12.52;;;5.90;;
75506;SDS011;64086;43.220;27.878;2024-03-02T01:25:50;13.00;;;6.13;;
75506;SDS011;64086;43.220;27.878;2024-03-02T01:28:16;14.80;;;6.32;;
75506;SDS011;64086;43.220;27.878;2024-03-02T01:30:42;14.63;;;6.07;;
75506;SDS011;64086;43.220;27.878;2024-03-02T01:33:08;15.07;;;7.22;;
75506;SDS011;64086;43.220;27.878;2024-03-02T01:35:34;14.73;;;5.88;;
75506;SDS011;64086;43.220;27.878;2024-03-02T01:38:00;13.07;;;6.03;;
75506;SDS011;64086;43.220;27.878;2024-03-02T01:40:26;14.68;;;6.35;;
75506;SDS011;64086;43.220;27.878;2024-03-02T01:42:52;13.75;;;6.50;;
75506;SDS011;64086;43.220;27.878;2024-03-02T01:45:23;13.20;;;6.47;;
75506;SDS011;64086;43.220;27.878;2024-03-02T01:47:48;13.40;;;6.32;;
75506;SDS011;64086;43.220;27.878;2024-03-02T01:50:14;14.07;;;6.43;;
75506;SDS011;64086;43.220;27.878;2024-03-02T01:52:40;15.55;;;6.35;;
75506;SDS011;64086;43.220;27.878;2024-03-02T01:55:06;16.67;;;6.80;;
75506;SDS011;64086;43.220;27.878;2024-03-02T01:57:32;14.63;;;6.80;;
75506;SDS011;64086;43.220;27.878;2024-03-02T01:59:59;10.85;;;6.32;;
75506;SDS011;64086;43.220;27.878;2024-03-02T02:02:25;17.58;;;6.93;;
75506;SDS011;64086;43.220;27.878;2024-03-02T02:04:50;13.23;;;6.68;;
75506;SDS011;64086;43.220;27.878;2024-03-02T02:07:16;11.25;;;6.03;;
75506;SDS011;64086;43.220;27.878;2024-03-02T02:09:42;15.95;;;6.30;;
75506;SDS011;64086;43.220;27.878;2024-03-02T02:12:11;15.23;;;6.75;;
75506;SDS011;64086;43.220;27.878;2024-03-02T02:14:37;13.80;;;5.78;;
75506;SDS011;64086;43.220;27.878;2024-03-02T02:17:04;14.25;;;6.55;;
75506;SDS011;64086;43.220;27.878;2024-03-02T02:19:30;13.65;;;6.40;;
75506;SDS011;64086;43.220;27.878;2024-03-02T02:21:55;12.43;;;6.50;;
75506;SDS011;64086;43.220;27.878;2024-03-02T02:24:21;12.77;;;5.90;;
75506;SDS011;64086;43.220;27.878;2024-03-02T02:26:46;14.95;;;6.85;;
75506;SDS011;64086;43.220;27.878;2024-03-02T02:29:12;11.68;;;5.85;;
75506;SDS011;64086;43.220;27.878;2024-03-02T02:31:37;13.88;;;6.38;;
75506;SDS011;64086;43.220;27.878;2024-03-02T02:34:04;14.25;;;6.25;;
75506;SDS011;64086;43.220;27.878;2024-03-02T02:36:30;12.95;;;6.45;;
75506;SDS011;64086;43.220;27.878;2024-03-02T02:38:56;12.75;;;6.22;;
75506;SDS011;64086;43.220;27.878;2024-03-02T02:41:21;15.45;;;6.10;;
75506;SDS011;64086;43.220;27.878;2024-03-02T02:43:47;14.02;;;6.13;;
75506;SDS011;64086;43.220;27.878;2024-03-02T02:46:13;13.48;;;6.40;;
75506;SDS011;64086;43.220;27.878;2024-03-02T02:48:38;15.32;;;6.20;;
75506;SDS011;64086;43.220;27.878;2024-03-02T02:51:04;17.48;;;6.72;;
75506;SDS011;64086;43.220;27.878;2024-03-02T02:53:29;10.85;;;5.75;;
75506;SDS011;64086;43.220;27.878;2024-03-02T02:55:54;16.83;;;6.07;;
75506;SDS011;64086;43.220;27.878;2024-03-02T02:58:20;12.98;;;6.38;;
75506;SDS011;64086;43.220;27.878;2024-03-02T03:00:46;15.90;;;6.13;;
75506;SDS011;64086;43.220;27.878;2024-03-02T03:03:11;14.07;;;6.65;;
75506;SDS011;64086;43.220;27.878;2024-03-02T03:05:37;10.20;;;5.72;;
75506;SDS011;64086;43.220;27.878;2024-03-02T03:08:02;17.92;;;6.93;;
75506;SDS011;64086;43.220;27.878;2024-03-02T03:10:28;18.55;;;6.53;;
75506;SDS011;64086;43.220;27.878;2024-03-02T03:12:54;11.63;;;6.10;;
75506;SDS011;64086;43.220;27.878;2024-03-02T03:15:21;12.98;;;6.03;;
75506;SDS011;64086;43.220;27.878;2024-03-02T03:17:46;13.15;;;5.80;;
75506;SDS011;64086;43.220;27.878;2024-03-02T03:20:12;10.38;;;5.85;;
75506;SDS011;64086;43.220;27.878;2024-03-02T03:22:38;13.43;;;6.10;;
75506;SDS011;64086;43.220;27.878;2024-03-02T03:25:04;13.93;;;6.53;;
75506;SDS011;64086;43.220;27.878;2024-03-02T03:27:30;11.10;;;5.55;;
75506;SDS011;64086;43.220;27.878;2024-03-02T03:29:55;12.80;;;7.47;;
75506;SDS011;64086;43.220;27.878;2024-03-02T03:32:21;14.23;;;6.45;;
75506;SDS011;64086;43.220;27.878;2024-03-02T03:34:47;17.23;;;6.15;;
75506;SDS011;64086;43.220;27.878;2024-03-02T03:37:13;14.85;;;7.00;;
75506;SDS011;64086;43.220;27.878;2024-03-02T03:39:39;14.85;;;7.45;;
75506;SDS011;64086;43.220;27.878;2024-03-02T03:42:04;10.80;;;6.35;;
75506;SDS011;64086;43.220;27.878;2024-03-02T03:44:30;13.70;;;7.13;;
75506;SDS011;64086;43.220;27.878;2024-03-02T03:46:56;10.10;;;6.13;;
75506;SDS011;64086;43.220;27.878;2024-03-02T03:49:21;12.98;;;6.55;;
75506;SDS011;64086;43.220;27.878;2024-03-02T03:51:47;14.40;;;6.85;;
75506;SDS011;64086;43.220;27.878;2024-03-02T03:54:12;12.98;;;6.63;;
75506;SDS011;64086;43.220;27.878;2024-03-02T03:56:38;12.48;;;6.57;;
75506;SDS011;64086;43.220;27.878;2024-03-02T03:59:03;11.85;;;5.93;;
75506;SDS011;64086;43.220;27.878;2024-03-02T04:01:30;12.93;;;7.28;;
75506;SDS011;64086;43.220;27.878;2024-03-02T04:03:56;11.82;;;6.32;;
75506;SDS011;64086;43.220;27.878;2024-03-02T04:06:22;10.98;;;6.18;;
75506;SDS011;64086;43.220;27.878;2024-03-02T04:08:48;12.27;;;6.10;;
75506;SDS011;64086;43.220;27.878;2024-03-02T04:11:13;13.05;;;5.70;;
75506;SDS011;64086;43.220;27.878;2024-03-02T04:13:39;15.52;;;6.57;;
75506;SDS011;64086;43.220;27.878;2024-03-02T04:16:04;13.48;;;7.18;;
75506;SDS011;64086;43.220;27.878;2024-03-02T04:18:30;15.77;;;6.38;;
75506;SDS011;64086;43.220;27.878;2024-03-02T04:20:57;14.55;;;6.53;;
75506;SDS011;64086;43.220;27.878;2024-03-02T04:23:24;13.30;;;6.85;;
75506;SDS011;64086;43.220;27.878;2024-03-02T04:25:50;16.85;;;8.13;;
75506;SDS011;64086;43.220;27.878;2024-03-02T04:28:16;11.75;;;6.55;;
75506;SDS011;64086;43.220;27.878;2024-03-02T04:30:41;13.35;;;6.10;;
75506;SDS011;64086;43.220;27.878;2024-03-02T04:33:07;12.43;;;7.53;;
75506;SDS011;64086;43.220;27.878;2024-03-02T04:35:35;14.02;;;6.85;;
75506;SDS011;64086;43.220;27.878;2024-03-02T04:38:03;15.77;;;6.75;;
75506;SDS011;64086;43.220;27.878;2024-03-02T04:40:29;12.73;;;6.05;;
75506;SDS011;64086;43.220;27.878;2024-03-02T04:42:54;11.55;;;5.90;;
75506;SDS011;64086;43.220;27.878;2024-03-02T04:45:20;12.75;;;6.50;;
75506;SDS011;64086;43.220;27.878;2024-03-02T04:47:45;13.73;;;6.78;;
75506;SDS011;64086;43.220;27.878;2024-03-02T04:50:11;9.32;;;5.85;;
75506;SDS011;64086;43.220;27.878;2024-03-02T04:52:36;16.60;;;6.40;;
75506;SDS011;64086;43.220;27.878;2024-03-02T04:55:02;14.10;;;7.03;;
75506;SDS011;64086;43.220;27.878;2024-03-02T04:57:46;13.80;;;6.28;;
75506;SDS011;64086;43.220;27.878;2024-03-02T05:00:12;12.70;;;6.50;;
75506;SDS011;64086;43.220;27.878;2024-03-02T05:02:38;12.85;;;7.07;;
75506;SDS011;64086;43.220;27.878;2024-03-02T05:05:04;16.50;;;7.05;;
75506;SDS011;64086;43.220;27.878;2024-03-02T05:07:29;16.88;;;7.40;;
75506;SDS011;64086;43.220;27.878;2024-03-02T05:09:55;11.27;;;7.03;;
75506;SDS011;64086;43.220;27.878;2024-03-02T05:12:20;15.25;;;6.38;;
75506;SDS011;64086;43.220;27.878;2024-03-02T05:15:05;13.00;;;6.25;;
75506;SDS011;64086;43.220;27.878;2024-03-02T05:17:34;15.32;;;6.68;;
75506;SDS011;64086;43.220;27.878;2024-03-02T05:19:59;13.30;;;7.00;;
75506;SDS011;64086;43.220;27.878;2024-03-02T05:22:24;11.60;;;6.18;;
75506;SDS011;64086;43.220;27.878;2024-03-02T05:27:37;12.80;;;6.53;;
75506;SDS011;64086;43.220;27.878;2024-03-02T05:30:02;12.45;;;5.85;;
75506;SDS011;64086;43.220;27.878;2024-03-02T05:32:31;13.13;;;6.80;;
75506;SDS011;64086;43.220;27.878;2024-03-02T05:34:57;12.07;;;7.35;;
75506;SDS011;64086;43.220;27.878;2024-03-02T05:37:22;12.30;;;6.85;;
75506;SDS011;64086;43.220;27.878;2024-03-02T05:39:48;11.77;;;5.93;;
75506;SDS011;64086;43.220;27.878;2024-03-02T05:42:13;11.55;;;7.30;;
75506;SDS011;64086;43.220;27.878;2024-03-02T05:44:39;13.88;;;9.05;;
75506;SDS011;64086;43.220;27.878;2024-03-02T05:47:05;19.38;;;10.90;;
75506;SDS011;64086;43.220;27.878;2024-03-02T05:49:33;17.02;;;9.93;;
75506;SDS011;64086;43.220;27.878;2024-03-02T05:51:59;16.63;;;9.77;;
75506;SDS011;64086;43.220;27.878;2024-03-02T05:54:24;17.48;;;9.07;;
75506;SDS011;64086;43.220;27.878;2024-03-02T05:56:50;17.65;;;8.88;;
75506;SDS011;64086;43.220;27.878;2024-03-02T05:59:15;14.32;;;7.90;;
75506;SDS011;64086;43.220;27.878;2024-03-02T06:01:42;13.52;;;7.13;;
75506;SDS011;64086;43.220;27.878;2024-03-02T06:04:11;14.07;;;6.80;;
75506;SDS011;64086;43.220;27.878;2024-03-02T06:06:37;12.73;;;5.88;;
75506;SDS011;64086;43.220;27.878;2024-03-02T06:09:04;13.20;;;6.65;;
75506;SDS011;64086;43.220;27.878;2024-03-02T06:11:33;13.60;;;6.35;;
75506;SDS011;64086;43.220;27.878;2024-03-02T06:13:59;14.18;;;6.25;;
75506;SDS011;64086;43.220;27.878;2024-03-02T06:16:25;12.18;;;6.90;;
75506;SDS011;64086;43.220;27.878;2024-03-02T06:18:50;12.60;;;6.28;;
75506;SDS011;64086;43.220;27.878;2024-03-02T06:21:16;13.50;;;6.50;;
75506;SDS011;64086;43.220;27.878;2024-03-02T06:23:43;14.90;;;6.90;;
75506;SDS011;64086;43.220;27.878;2024-03-02T06:26:09;9.93;;;5.97;;
75506;SDS011;64086;43.220;27.878;2024-03-02T06:28:34;10.38;;;5.78;;
75506;SDS011;64086;43.220;27.878;2024-03-02T06:31:01;10.52;;;5.70;;
75506;SDS011;64086;43.220;27.878;2024-03-02T06:33:27;12.13;;;6.65;;
75506;SDS011;64086;43.220;27.878;2024-03-02T06:35:53;11.13;;;6.63;;
75506;SDS011;64086;43.220;27.878;2024-03-02T06:38:19;14.75;;;6.13;;
75506;SDS011;64086;43.220;27.878;2024-03-02T06:40:44;11.63;;;6.70;;
75506;SDS011;64086;43.220;27.878;2024-03-02T06:43:10;12.75;;;7.20;;
75506;SDS011;64086;43.220;27.878;2024-03-02T06:45:36;12.05;;;6.50;;
75506;SDS011;64086;43.220;27.878;2024-03-02T06:48:01;10.38;;;6.30;;
75506;SDS011;64086;43.220;27.878;2024-03-02T06:50:27;12.75;;;6.40;;
75506;SDS011;64086;43.220;27.878;2024-03-02T06:52:52;13.68;;;6.15;;
75506;SDS011;64086;43.220;27.878;2024-03-02T06:55:18;11.70;;;6.35;;
75506;SDS011;64086;43.220;27.878;2024-03-02T06:57:44;10.80;;;6.60;;
75506;SDS011;64086;43.220;27.878;2024-03-02T07:00:09;13.27;;;6.82;;
75506;SDS011;64086;43.220;27.878;2024-03-02T07:02:35;10.32;;;6.28;;
75506;SDS011;64086;43.220;27.878;2024-03-02T07:05:01;13.68;;;6.95;;
75506;SDS011;64086;43.220;27.878;2024-03-02T07:07:29;12.45;;;6.50;;
75506;SDS011;64086;43.220;27.878;2024-03-02T07:09:54;12.02;;;6.40;;
75506;SDS011;64086;43.220;27.878;2024-03-02T07:12:20;14.98;;;6.47;;
75506;SDS011;64086;43.220;27.878;2024-03-02T07:14:45;11.95;;;6.00;;
75506;SDS011;64086;43.220;27.878;2024-03-02T07:19:57;14.50;;;6.47;;
75506;SDS011;64086;43.220;27.878;2024-03-02T07:22:23;12.00;;;7.43;;
75506;SDS011;64086;43.220;27.878;2024-03-02T07:24:49;13.15;;;6.72;;
75506;SDS011;64086;43.220;27.878;2024-03-02T07:27:15;12.32;;;7.10;;
75506;SDS011;64086;43.220;27.878;2024-03-02T07:29:41;13.52;;;6.50;;
75506;SDS011;64086;43.220;27.878;2024-03-02T07:32:07;11.90;;;7.05;;
75506;SDS011;64086;43.220;27.878;2024-03-02T07:34:33;15.02;;;6.47;;
75506;SDS011;64086;43.220;27.878;2024-03-02T07:36:59;10.95;;;6.22;;
75506;SDS011;64086;43.220;27.878;2024-03-02T07:39:24;11.73;;;6.38;;
75506;SDS011;64086;43.220;27.878;2024-03-02T07:41:50;11.27;;;6.22;;
75506;SDS011;64086;43.220;27.878;2024-03-02T07:44:16;10.10;;;6.82;;
75506;SDS011;64086;43.220;27.878;2024-03-02T07:46:44;11.15;;;6.63;;
75506;SDS011;64086;43.220;27.878;2024-03-02T07:49:11;11.82;;;6.47;;
75506;SDS011;64086;43.220;27.878;2024-03-02T07:51:38;13.57;;;6.28;;
75506;SDS011;64086;43.220;27.878;2024-03-02T07:54:03;12.02;;;6.25;;
75506;SDS011;64086;43.220;27.878;2024-03-02T07:56:29;14.25;;;6.82;;
75506;SDS011;64086;43.220;27.878;2024-03-02T07:58:55;10.48;;;6.00;;
75506;SDS011;64086;43.220;27.878;2024-03-02T08:01:22;12.05;;;6.53;;
75506;SDS011;64086;43.220;27.878;2024-03-02T08:03:48;9.80;;;5.35;;
75506;SDS011;64086;43.220;27.878;2024-03-02T08:06:15;11.55;;;6.30;;
75506;SDS011;64086;43.220;27.878;2024-03-02T08:08:46;12.57;;;5.95;;
75506;SDS011;64086;43.220;27.878;2024-03-02T08:11:12;10.77;;;6.00;;
75506;SDS011;64086;43.220;27.878;2024-03-02T08:13:38;9.60;;;6.45;;
75506;SDS011;64086;43.220;27.878;2024-03-02T08:16:03;10.27;;;5.80;;
75506;SDS011;64086;43.220;27.878;2024-03-02T08:18:32;11.80;;;6.35;;
75506;SDS011;64086;43.220;27.878;2024-03-02T08:20:57;10.70;;;6.85;;
75506;SDS011;64086;43.220;27.878;2024-03-02T08:23:23;12.57;;;6.63;;
75506;SDS011;64086;43.220;27.878;2024-03-02T08:25:48;12.00;;;5.70;;
75506;SDS011;64086;43.220;27.878;2024-03-02T08:28:14;9.70;;;5.68;;
75506;SDS011;64086;43.220;27.878;2024-03-02T08:30:39;10.60;;;5.57;;
75506;SDS011;64086;43.220;27.878;2024-03-02T08:33:05;11.80;;;6.00;;
75506;SDS011;64086;43.220;27.878;2024-03-02T08:35:31;9.68;;;5.78;;
75506;SDS011;64086;43.220;27.878;2024-03-02T08:38:00;12.93;;;6.85;;
75506;SDS011;64086;43.220;27.878;2024-03-02T08:40:27;10.70;;;6.03;;
75506;SDS011;64086;43.220;27.878;2024-03-02T08:42:52;10.00;;;5.75;;
75506;SDS011;64086;43.220;27.878;2024-03-02T08:45:18;9.73;;;5.78;;
75506;SDS011;64086;43.220;27.878;2024-03-02T08:47:45;11.57;;;6.13;;
75506;SDS011;64086;43.220;27.878;2024-03-02T08:50:11;12.82;;;6.50;;
75506;SDS011;64086;43.220;27.878;2024-03-02T08:52:37;11.48;;;5.90;;
75506;SDS011;64086;43.220;27.878;2024-03-02T08:55:02;8.88;;;5.80;;
75506;SDS011;64086;43.220;27.878;2024-03-02T08:57:28;13.23;;;6.78;;
75506;SDS011;64086;43.220;27.878;2024-03-02T08:59:54;11.27;;;5.82;;
75506;SDS011;64086;43.220;27.878;2024-03-02T09:02:19;11.13;;;6.40;;
75506;SDS011;64086;43.220;27.878;2024-03-02T09:04:45;8.90;;;5.13;;
75506;SDS011;64086;43.220;27.878;2024-03-02T09:07:10;14.07;;;5.20;;
75506;SDS011;64086;43.220;27.878;2024-03-02T09:09:36;13.63;;;6.18;;
75506;SDS011;64086;43.220;27.878;2024-03-02T09:12:03;10.38;;;5.45;;
75506;SDS011;64086;43.220;27.878;2024-03-02T09:14:29;12.30;;;5.88;;
75506;SDS011;64086;43.220;27.878;2024-03-02T09:16:55;8.25;;;5.10;;
75506;SDS011;64086;43.220;27.878;2024-03-02T09:19:20;10.43;;;5.93;;
75506;SDS011;64086;43.220;27.878;2024-03-02T09:21:46;10.82;;;5.72;;
75506;SDS011;64086;43.220;27.878;2024-03-02T09:24:11;10.95;;;6.43;;
75506;SDS011;64086;43.220;27.878;2024-03-02T09:26:37;10.48;;;5.70;;
75506;SDS011;64086;43.220;27.878;2024-03-02T09:29:03;9.70;;;5.68;;
75506;SDS011;64086;43.220;27.878;2024-03-02T09:31:29;9.27;;;6.13;;
75506;SDS011;64086;43.220;27.878;2024-03-02T09:33:54;11.55;;;5.50;;
75506;SDS011;64086;43.220;27.878;2024-03-02T09:36:21;10.25;;;5.30;;
75506;SDS011;64086;43.220;27.878;2024-03-02T09:38:47;9.77;;;5.18;;
75506;SDS011;64086;43.220;27.878;2024-03-02T09:41:13;9.90;;;5.95;;
75506;SDS011;64086;43.220;27.878;2024-03-02T09:43:39;12.05;;;5.88;;
75506;SDS011;64086;43.220;27.878;2024-03-02T09:46:06;9.27;;;5.63;;
75506;SDS011;64086;43.220;27.878;2024-03-02T09:48:33;10.40;;;6.00;;
75506;SDS011;64086;43.220;27.878;2024-03-02T09:51:00;9.27;;;5.28;;
75506;SDS011;64086;43.220;27.878;2024-03-02T09:53:27;9.63;;;6.07;;
75506;SDS011;64086;43.220;27.878;2024-03-02T09:55:56;12.18;;;6.13;;
75506;SDS011;64086;43.220;27.878;2024-03-02T09:58:22;11.48;;;6.03;;
75506;SDS011;64086;43.220;27.878;2024-03-02T10:00:47;10.23;;;5.70;;
75506;SDS011;64086;43.220;27.878;2024-03-02T10:03:14;10.60;;;5.72;;
75506;SDS011;64086;43.220;27.878;2024-03-02T10:05:40;11.32;;;6.13;;
75506;SDS011;64086;43.220;27.878;2024-03-02T10:08:05;10.00;;;6.32;;
75506;SDS011;64086;43.220;27.878;2024-03-02T10:10:38;12.55;;;6.53;;
75506;SDS011;64086;43.220;27.878;2024-03-02T10:15:34;9.50;;;5.47;;
75506;SDS011;64086;43.220;27.878;2024-03-02T10:18:02;10.00;;;5.45;;
75506;SDS011;64086;43.220;27.878;2024-03-02T10:20:28;9.32;;;5.22;;
75506;SDS011;64086;43.220;27.878;2024-03-02T10:22:54;8.52;;;4.95;;
75506;SDS011;64086;43.220;27.878;2024-03-02T10:25:38;9.15;;;5.68;;
75506;SDS011;64086;43.220;27.878;2024-03-02T10:28:04;11.40;;;6.10;;
75506;SDS011;64086;43.220;27.878;2024-03-02T10:30:31;8.55;;;4.57;;
75506;SDS011;64086;43.220;27.878;2024-03-02T10:32:57;10.63;;;5.20;;
75506;SDS011;64086;43.220;27.878;2024-03-02T10:35:22;8.65;;;5.80;;
75506;SDS011;64086;43.220;27.878;2024-03-02T10:37:48;11.77;;;5.13;;
75506;SDS011;64086;43.220;27.878;2024-03-02T10:40:14;8.88;;;5.47;;
75506;SDS011;64086;43.220;27.878;2024-03-02T10:42:40;7.47;;;5.07;;
75506;SDS011;64086;43.220;27.878;2024-03-02T10:45:07;10.88;;;5.38;;
75506;SDS011;64086;43.220;27.878;2024-03-02T10:47:37;12.35;;;5.80;;
75506;SDS011;64086;43.220;27.878;2024-03-02T10:50:04;9.90;;;5.50;;
75506;SDS011;64086;43.220;27.878;2024-03-02T10:52:34;10.52;;;5.45;;
75506;SDS011;64086;43.220;27.878;2024-03-02T10:55:00;10.05;;;5.97;;
75506;SDS011;64086;43.220;27.878;2024-03-02T10:57:25;10.52;;;5.57;;
75506;SDS011;64086;43.220;27.878;2024-03-02T10:59:52;10.32;;;6.25;;
75506;SDS011;64086;43.220;27.878;2024-03-02T11:02:21;10.43;;;5.93;;
75506;SDS011;64086;43.220;27.878;2024-03-02T11:04:47;11.48;;;5.65;;
75506;SDS011;64086;43.220;27.878;2024-03-02T11:07:14;9.38;;;6.15;;
75506;SDS011;64086;43.220;27.878;2024-03-02T11:09:41;10.27;;;6.00;;
75506;SDS011;64086;43.220;27.878;2024-03-02T11:12:16;9.20;;;5.95;;
75506;SDS011;64086;43.220;27.878;2024-03-02T11:14:45;13.18;;;6.47;;
75506;SDS011;64086;43.220;27.878;2024-03-02T11:17:11;12.00;;;6.32;;
75506;SDS011;64086;43.220;27.878;2024-03-02T11:19:40;10.80;;;6.95;;
75506;SDS011;64086;43.220;27.878;2024-03-02T11:22:06;11.95;;;6.47;;
75506;SDS011;64086;43.220;27.878;2024-03-02T11:24:33;10.52;;;6.55;;
75506;SDS011;64086;43.220;27.878;2024-03-02T11:26:59;10.20;;;6.53;;
75506;SDS011;64086;43.220;27.878;2024-03-02T11:32:00;11.30;;;7.05;;
75506;SDS011;64086;43.220;27.878;2024-03-02T11:34:30;13.50;;;7.28;;
75506;SDS011;64086;43.220;27.878;2024-03-02T11:36:57;14.07;;;6.20;;
75506;SDS011;64086;43.220;27.878;2024-03-02T11:39:25;13.05;;;6.57;;
75506;SDS011;64086;43.220;27.878;2024-03-02T11:41:51;11.93;;;6.90;;
75506;SDS011;64086;43.220;27.878;2024-03-02T11:44:16;12.93;;;7.50;;
75506;SDS011;64086;43.220;27.878;2024-03-02T11:46:44;10.60;;;6.47;;
75506;SDS011;64086;43.220;27.878;2024-03-02T11:49:14;11.45;;;6.00;;
75506;SDS011;64086;43.220;27.878;2024-03-02T11:51:40;9.07;;;5.00;;
75506;SDS011;64086;43.220;27.878;2024-03-02T11:54:18;11.07;;;6.60;;
75506;SDS011;64086;43.220;27.878;2024-03-02T11:56:44;10.70;;;6.57;;
75506;SDS011;64086;43.220;27.878;2024-03-02T11:59:10;10.75;;;6.30;;
75506;SDS011;64086;43.220;27.878;2024-03-02T12:01:36;12.27;;;5.53;;
75506;SDS011;64086;43.220;27.878;2024-03-02T12:04:03;11.82;;;5.63;;
75506;SDS011;64086;43.220;27.878;2024-03-02T12:06:30;10.23;;;5.35;;
75506;SDS011;64086;43.220;27.878;2024-03-02T12:08:56;10.65;;;5.30;;
75506;SDS011;64086;43.220;27.878;2024-03-02T12:11:21;9.55;;;5.60;;
75506;SDS011;64086;43.220;27.878;2024-03-02T12:13:53;9.70;;;5.78;;
75506;SDS011;64086;43.220;27.878;2024-03-02T12:16:23;10.07;;;6.40;;
75506;SDS011;64086;43.220;27.878;2024-03-02T12:18:51;14.45;;;7.55;;
75506;SDS011;64086;43.220;27.878;2024-03-02T12:21:17;10.95;;;5.78;;
75506;SDS011;64086;43.220;27.878;2024-03-02T12:23:42;10.30;;;5.57;;
75506;SDS011;64086;43.220;27.878;2024-03-02T12:26:08;9.77;;;5.82;;
75506;SDS011;64086;43.220;27.878;2024-03-02T12:28:34;9.63;;;5.55;;
75506;SDS011;64086;43.220;27.878;2024-03-02T12:31:00;9.07;;;5.97;;
75506;SDS011;64086;43.220;27.878;2024-03-02T12:33:25;11.77;;;6.30;;
75506;SDS011;64086;43.220;27.878;2024-03-02T12:35:52;8.75;;;5.93;;
75506;SDS011;64086;43.220;27.878;2024-03-02T12:38:17;11.73;;;5.80;;
75506;SDS011;64086;43.220;27.878;2024-03-02T12:40:44;14.65;;;6.68;;
75506;SDS011;64086;43.220;27.878;2024-03-02T12:43:10;10.60;;;6.07;;
75506;SDS011;64086;43.220;27.878;2024-03-02T12:45:36;8.85;;;6.63;;
75506;SDS011;64086;43.220;27.878;2024-03-02T12:48:01;12.30;;;6.13;;
75506;SDS011;64086;43.220;27.878;2024-03-02T12:50:27;10.20;;;5.60;;
75506;SDS011;64086;43.220;27.878;2024-03-02T12:52:53;10.50;;;6.03;;
75506;SDS011;64086;43.220;27.878;2024-03-02T12:55:20;10.05;;;5.70;;
75506;SDS011;64086;43.220;27.878;2024-03-02T12:57:47;10.68;;;6.07;;
75506;SDS011;64086;43.220;27.878;2024-03-02T13:00:12;9.93;;;5.78;;
75506;SDS011;64086;43.220;27.878;2024-03-02T13:02:41;10.70;;;6.65;;
75506;SDS011;64086;43.220;27.878;2024-03-02T13:05:08;12.98;;;7.20;;
75506;SDS011;64086;43.220;27.878;2024-03-02T13:07:36;9.45;;;5.80;;
75506;SDS011;64086;43.220;27.878;2024-03-02T13:10:03;13.85;;;6.07;;
75506;SDS011;64086;43.220;27.878;2024-03-02T13:12:29;9.90;;;5.78;;
75506;SDS011;64086;43.220;27.878;2024-03-02T13:14:57;11.25;;;5.70;;
75506;SDS011;64086;43.220;27.878;2024-03-02T13:17:23;12.00;;;6.05;;
75506;SDS011;64086;43.220;27.878;2024-03-02T13:22:18;12.43;;;6.63;;
75506;SDS011;64086;43.220;27.878;2024-03-02T13:24:44;11.38;;;6.63;;
75506;SDS011;64086;43.220;27.878;2024-03-02T13:27:09;11.35;;;6.63;;
75506;SDS011;64086;43.220;27.878;2024-03-02T13:29:35;11.88;;;6.80;;
75506;SDS011;64086;43.220;27.878;2024-03-02T13:32:02;12.98;;;7.30;;
75506;SDS011;64086;43.220;27.878;2024-03-02T13:34:28;11.55;;;6.65;;
75506;SDS011;64086;43.220;27.878;2024-03-02T13:36:53;9.30;;;6.72;;
75506;SDS011;64086;43.220;27.878;2024-03-02T13:39:19;13.20;;;7.63;;
75506;SDS011;64086;43.220;27.878;2024-03-02T13:41:44;11.65;;;7.18;;
75506;SDS011;64086;43.220;27.878;2024-03-02T13:44:17;10.77;;;7.70;;
75506;SDS011;64086;43.220;27.878;2024-03-02T13:46:43;9.35;;;6.88;;
75506;SDS011;64086;43.220;27.878;2024-03-02T13:49:10;12.38;;;7.38;;
75506;SDS011;64086;43.220;27.878;2024-03-02T13:51:36;10.57;;;7.00;;
75506;SDS011;64086;43.220;27.878;2024-03-02T13:54:02;14.77;;;7.38;;
75506;SDS011;64086;43.220;27.878;2024-03-02T13:56:28;10.90;;;7.43;;
75506;SDS011;64086;43.220;27.878;2024-03-02T13:58:54;13.63;;;8.52;;
75506;SDS011;64086;43.220;27.878;2024-03-02T14:01:20;12.63;;;7.32;;
75506;SDS011;64086;43.220;27.878;2024-03-02T14:03:45;12.95;;;7.00;;
75506;SDS011;64086;43.220;27.878;2024-03-02T14:06:11;12.77;;;7.47;;
75506;SDS011;64086;43.220;27.878;2024-03-02T14:08:37;11.07;;;7.72;;
75506;SDS011;64086;43.220;27.878;2024-03-02T14:11:02;9.48;;;6.65;;
75506;SDS011;64086;43.220;27.878;2024-03-02T14:13:28;12.45;;;6.88;;
75506;SDS011;64086;43.220;27.878;2024-03-02T14:15:54;12.07;;;7.35;;
75506;SDS011;64086;43.220;27.878;2024-03-02T14:18:20;13.05;;;6.78;;
75506;SDS011;64086;43.220;27.878;2024-03-02T14:20:46;13.27;;;7.63;;
75506;SDS011;64086;43.220;27.878;2024-03-02T14:23:17;11.25;;;7.22;;
75506;SDS011;64086;43.220;27.878;2024-03-02T14:25:44;11.98;;;7.50;;
75506;SDS011;64086;43.220;27.878;2024-03-02T14:28:10;11.05;;;7.53;;
75506;SDS011;64086;43.220;27.878;2024-03-02T14:30:37;11.57;;;7.35;;
75506;SDS011;64086;43.220;27.878;2024-03-02T14:33:02;13.05;;;7.10;;